Rachel, Nevada Weather observations

Data are for observation ending at time listed.
 Day   Time    Ave.   Ave.  Ave.  Vector   Max.   Stn.    Total    Solar   Ave.  
  of    of     Air    Rel.  Wind   Wind    Wind   Baro.  Precip.   Rad.    Soil  
Year   Day     Temp.  Hum.  Speed  Dir.    Gust   Pres.                    Temp. 
2020   (PST)    F      %     mph   deg.    mph     mb.     in.     W/m2     F   
------------------------------------------------------------------------------
 152   11:20   81.2    11   16.2   158     22.4   850.4    0.00     771    78.9
 152   11:30   80.3    12   14.3   167     24.7   850.5    0.00     776    79.2
 152   11:40   80.5    11   16.0   159     23.1   850.3    0.00     778    79.4
 152   11:50   80.2    12   14.0   167     26.7   850.3    0.00     779    79.6
 152   12:00   80.6    12   13.1   161     21.6   850.2    0.00     777    79.8
 152   12:10   81.8    11   16.3   166     27.0   850.0    0.00     773    79.9
 152   12:20   81.8    11   14.4   177     28.8   850.1    0.00     768    80.0
 152   12:30   82.5    11   14.1   191     28.1   850.1    0.00     761    80.2
 152   12:40   82.3    11   17.8   172     25.8   850.0    0.00     759    80.2
 152   12:50   82.9    11   16.7   189     26.1   850.2    0.00     754    80.2
 152   13:00   83.8    10   15.9   178     23.4   850.3    0.00     747    80.2
 152   13:10   83.9    10   16.4   214     29.1   850.4    0.00     741    80.1
 152   13:20   83.5    11   19.6   221     29.7   850.6    0.00     724    80.2
 152   13:30   83.4    11   16.2   216     26.2   850.7    0.00     736    80.2
 152   13:40   83.7    11   14.2   228     21.6   850.6    0.00     631    80.1
 152   13:50   83.6    11   17.0   225     25.1   850.7    0.00     689    80.1
 152   14:00   83.7    11   15.6   222     25.6   850.7    0.00     673    80.1
 152   14:10   83.8    11   16.4   227     25.9   850.7    0.00     663    80.1
 152   14:20   83.5    11   17.4   232     25.5   850.6    0.00     430    80.2
 152   14:30   82.7    11   16.2   225     26.5   850.6    0.00     390    80.2
 152   14:40   83.3    11   14.6   224     24.3   850.5    0.00     651    80.2
 152   14:50   83.3    12   16.4   231     30.0   850.5    0.00     501    80.3
 152   15:00   82.2    12   14.7   235     25.0   850.4    0.00     259    80.2
 152   15:10   81.3    12   14.4   226     24.3   850.3    0.00     276    80.3
 152   15:20   83.1    12   15.5   239     25.1   850.0    0.00     547    80.3
 152   15:30   83.0    12   17.2   225     24.4   850.1    0.00     567    80.3
 152   15:40   84.0    12   14.8   238     24.3   850.0    0.00     577    80.3
 152   15:50   83.7    12   20.0   241     29.1   850.0    0.00     555    80.4
 152   16:00   83.5    12   17.7   240     29.2   850.2    0.00     441    80.4
 152   16:10   82.0    11   15.0   224     24.8   850.3    0.00     231    80.4
 152   16:20   81.5    11   16.9   194     23.5   850.2    0.00     173    80.3
 152   16:30   81.1    12   13.6   198     21.0   850.0    0.00     293    80.4
 152   16:40   81.6    11   14.8   207     25.4   849.9    0.00     323    80.4
 152   16:50   82.0    12   17.3   213     25.4   849.8    0.00     338    80.3
 152   17:00   81.9    12   13.9   212     21.8   849.8    0.00     281    80.4
 152   17:10   81.8    12   14.2   235     24.3   849.7    0.00     254    80.3
 152   17:20   80.9    12   16.1   237     23.8   849.7    0.00     205    80.2
 152   17:30   80.3    12   15.6   241     22.4   849.6    0.00     182    80.2
 152   17:40   80.0    11   16.2   242     23.7   849.6    0.00     204    80.1
 152   17:50   80.1    12   16.2   238     24.3   849.5    0.00     199    80.0
 152   18:00   79.4    12   15.4   236     24.0   849.5    0.00     157    79.9
 152   18:10   78.5    11   18.4   234     27.5   849.4    0.00     125    79.8
 152   18:20   77.5    12   16.9   233     26.1   849.4    0.00      78    79.8
 152   18:30   77.0    12   16.7   234     27.8   849.5    0.00      59    79.6
 152   18:40   76.2    12   15.8   232     25.6   849.3    0.00      35    79.5
 152   18:50   75.6    12   16.0   235     26.6   849.1    0.00      22    79.5
 152   19:00   75.0    12   16.8   233     26.0   849.0    0.00      10    79.4
 152   19:10   74.4    12   15.5   232     25.4   848.9    0.00       4    79.1
 152   19:20   74.0    13   13.6   234     24.5   849.1    0.00       1    78.9
 152   19:30   73.6    13   12.7   238     18.9   848.9    0.00       0    79.0
 152   19:40   73.2    13   11.8   241     19.1   849.2    0.00       0    78.5
 152   19:50   72.9    14   12.5   245     20.0   849.1    0.00       0    78.3
 152   20:00   72.7    14   11.2   240     18.0   849.2    0.00       0    78.1
 152   20:10   72.2    14    8.5   237     14.1   849.3    0.00       0    78.0
 152   20:20   72.3    14    6.4   234     16.6   849.4    0.00       0    77.8
 152   20:30   72.0    14    2.7   236      6.8   849.6    0.00       0    77.5
 152   20:40   71.9    13    5.0   321     12.2   849.7    0.00       0    77.3
 152   20:50   71.2    14    6.8    48     10.7   850.1    0.00       0    77.2
 152   21:00   69.4    14    5.7    16      8.0   850.2    0.00       0    77.1
 152   21:10   68.7    15    5.2   329      7.4   849.9    0.00       0    76.8
 152   21:20   68.6    15    1.6    14      3.8   849.7    0.00       0    76.5
 152   21:30   69.0    14    3.8    35      6.3   849.6    0.00       0    76.4
 152   21:40   69.6    14    3.0    92      5.3   849.4    0.00       0    76.4
 152   21:50   68.1    15    4.2    56      6.3   849.4    0.00       0    76.1
 152   22:00   65.7    16    6.0    89      7.7   849.3    0.00       0    75.9
 152   22:10   66.2    16    4.3   139      5.8   849.4    0.00       0    75.7
 152   22:20   66.5    16    3.1   171      5.7   849.6    0.00       0    75.5
 152   22:30   65.5    17    1.5    80      4.2   849.6    0.00       0    75.2
 152   22:40   65.4    18    2.7   166      4.8   849.6    0.00       0    75.1
 152   22:50   64.5    18    3.3    40      6.8   849.6    0.00       0    74.9
 152   23:00   63.1    20    3.4   106      5.8   849.7    0.00       0    74.7
 152   23:10   62.9    20    2.5    74      4.4   849.5    0.00       0    74.5
 152   23:20   63.7    20    2.2   146      3.9   848.9    0.00       0    74.3
 152   23:30   64.3    20    2.0   169      5.6   848.8    0.00       0    74.2
 152   23:40   65.1    19    2.4   134      6.4   848.7    0.00       0    73.9
 152   23:50   63.6    21    3.9   163      7.6   848.9    0.00       0    73.9
 153    0:00   63.1    21    7.1   158      8.4   848.9    0.00       0    73.7
 153    0:10   62.6    22    4.6   157      7.0   849.0    0.00       0    73.5
 153    0:20   61.9    22    3.9   210      8.2   849.0    0.00       0    73.5
 153    0:30   62.6    22    3.0   207      8.6   848.8    0.00       0    73.2
 153    0:40   60.8    24    1.8    35      3.7   848.8    0.00       0    73.0
 153    0:50   60.2    25    1.6   327      3.0   849.0    0.00       0    72.8
 153    1:00   60.2    25    3.0    58      9.3   849.0    0.00       0    72.7
 153    1:10   57.5    27    5.2   348      9.1   848.7    0.00       0    72.5
 153    1:20   56.1    28    3.5   356      4.9   848.4    0.00       0    72.3
 153    1:30   56.1    28    3.2   353      7.0   848.3    0.00       0    72.1
 153    1:40   55.9    28    3.7   292      9.7   848.3    0.00       0    71.9
 153    1:50   56.0    29    3.6   216      7.5   848.2    0.00       0    71.7
 153    2:00   55.2    30    4.7   225      7.7   848.2    0.00       0    71.5
 153    2:10   53.5    32    3.0   277      6.5   848.3    0.00       0    71.3
 153    2:20   52.5    33    2.1   225      6.1   848.3    0.00       0    71.2
 153    2:30   52.1    33    2.3   230      5.2   848.3    0.00       0    71.1
 153    2:40   51.5    32    2.0   198      4.6   848.6    0.00       0    71.0
 153    2:50   52.3    31    2.9   240      4.6   848.5    0.00       0    70.6
 153    3:00   52.3    32    2.5   270      4.7   848.6    0.00       0    70.5
 153    3:10   51.9    32    3.2   254      5.6   848.4    0.00       0    70.3
 153    3:20   50.9    32    3.9   170      8.1   848.4    0.00       0    70.1
 153    3:30   51.4    32    2.5   240      3.9   848.4    0.00       0    70.0
 153    3:40   51.5    32    2.3   226      4.1   848.3    0.00       0    69.8
 153    3:50   49.9    34    2.6   281      4.8   848.4    0.00       0    69.7
 153    4:00   50.4    33    2.1   252      3.9   848.4    0.00       0    69.4
 153    4:10   50.0    34    1.9   233      4.5   848.6    0.00       0    69.3
 153    4:20   49.9    34    1.8   205      3.4   848.4    0.00       0    69.2
 153    4:30   49.5    34    1.8   210      5.4   848.4    0.00       2    69.0
 153    4:40   49.9    34    2.1   227      6.2   848.4    0.00       4    69.0
 153    4:50   48.6    35    2.3   159      5.7   848.5    0.00      14    68.6
 153    5:00   48.9    34    2.1   130      5.3   848.3    0.00      32    68.6
 153    5:10   50.1    33    0.7   143      2.3   848.4    0.00      37    68.4
 153    5:20   49.0    35    0.9    22      2.0   848.5    0.00      40    68.3
 153    5:30   49.5    35    2.7   332      5.7   848.7    0.00      53    68.2
 153    5:40   47.6    37    2.9   341      5.0   848.8    0.00      67    68.1
 153    5:50   48.8    36    1.4   281      4.3   848.8    0.00      87    68.0
 153    6:00   50.2    35    1.3   288      3.1   848.9    0.00      96    67.9
 153    6:10   50.7    34    1.3   321      3.1   849.1    0.00     111    67.8
 153    6:20   51.6    34    1.5   239      3.0   849.3    0.00      91    67.9
 153    6:30   52.4    33    0.7   218      2.1   849.5    0.00      97    67.8
 153    6:40   52.9    32    1.7   175      3.4   849.6    0.00     106    67.7
 153    6:50   53.7    32    3.0   183      5.9   849.7    0.00     134    67.9
 153    7:00   54.8    29    2.9   163      5.8   849.9    0.00     140    67.7
 153    7:10   55.7    28    3.5   146      6.1   850.1    0.00     165    67.8
 153    7:20   57.9    27    2.6   141      4.2   850.3    0.00     312    67.9
 153    7:30   60.7    24    2.2    95      4.0   850.5    0.00     291    68.1
 153    7:40   61.3    24    2.7    48      4.5   850.8    0.00     261    68.2
 153    7:50   63.2    23    1.6    65      4.5   851.0    0.00     313    68.2
 153    8:00   64.1    22    2.0     0      3.7   851.2    0.00     369    68.3
 153    8:10   65.8    21    1.4    28      3.1   851.4    0.00     488    68.5
 153    8:20   69.1    19    1.3    78      4.6   851.7    0.00     515    68.7
 153    8:30   69.3    19    4.4    14      6.9   852.0    0.00     459    69.1
 153    8:40   69.6    19    5.4    14      8.1   852.8    0.00     509    69.4
 153    8:50   70.7    18    5.2     4      6.9   852.4    0.00     465    69.7
 153    9:00   71.5    18    3.6     5      8.1   852.5    0.00     537    69.9
 153    9:10   73.8    17    2.3    68      4.8   852.5    0.00     564    70.2
 153    9:20   74.7    17    3.1   304      5.8   852.7    0.00     533    70.4
 153    9:30   76.4    16    2.5   290      6.3   852.6    0.00     653    70.9
 153    9:40   79.0    14   13.7   217     24.3   853.0    0.00     701    71.4
 153    9:50   79.4    13   13.8   218     22.8   853.5    0.00     663    71.7
 153   10:00   79.1    13   12.1   222     19.4   854.0    0.00     698    72.2
 153   10:10   79.9    13   12.3   216     20.9   853.4    0.00     718    72.7
 153   10:20   80.3    13   12.7   218     23.9   853.2    0.00     713    73.2
 153   10:30   80.5    13   12.8   211     27.4   853.2    0.00     754    73.8
 153   10:40   80.3    12   15.5   207     23.7   853.3    0.00     759    74.4
 153   10:50   80.3    12   13.0   206     22.1   853.2    0.00     764    74.9
 153   11:00   81.5    12   15.7   212     29.0   853.2    0.00     775    75.4
 153   11:10   81.8    12   14.2   242     22.1   853.2    0.00     779    75.8

Return to St. George, Utah graphs page.


Western Regional Climate Center,wrcc@dri.edu